Time;durP1;ratioP1;P1;durP2;ratioP2;P2;SDS_P1;SDS_P2;PMS_P1;PMS_P2;Temp;Humidity;BMP_temperature;BMP_pressure;BME280_temperature;BME280_humidity;BME280_pressure;Samples;Min_cycle;Max_cycle;Signal;HPM_P1;HPM_P2
2022/02/16 00:02:08;;;;;;;23.02;12.15;;;231.30;2252.80;;;;;;5112447;28;20553;-81
2022/02/16 00:04:35;;;;;;;25.67;12.98;;;231.30;2252.80;;;;;;5113038;28;20038;-82
2022/02/16 00:07:01;;;;;;;27.02;13.25;;;231.30;2252.80;;;;;;5112938;28;20027;-81
2022/02/16 00:09:27;;;;;;;27.58;12.27;;;231.30;2252.80;;;;;;5112641;28;20064;-82
2022/02/16 00:11:52;;;;;;;;;;;231.30;2252.80;;;;;;5113495;28;20062;-81
2022/02/16 00:14:18;;;;;;;24.65;12.48;;;231.30;2252.80;;;;;;5112356;28;19918;-81
2022/02/16 00:16:44;;;;;;;;;;;231.30;2252.80;;;;;;5112533;28;20026;-81
2022/02/16 00:19:09;;;;;;;25.17;12.75;;;231.30;2252.80;;;;;;5112391;28;20376;-81
2022/02/16 00:21:35;;;;;;;;;;;231.30;2252.80;;;;;;5113782;28;20019;-81
2022/02/16 00:24:01;;;;;;;27.75;13.50;;;231.20;2252.80;;;;;;5111856;28;20346;-79
2022/02/16 00:26:26;;;;;;;;;;;231.30;2252.80;;;;;;5113067;28;20020;-77
2022/02/16 00:28:52;;;;;;;27.45;13.85;;;231.30;2252.80;;;;;;5112423;28;19947;-81
2022/02/16 00:31:18;;;;;;;;;;;231.30;2252.80;;;;;;5112785;28;20110;-81
2022/02/16 00:33:44;;;;;;;25.35;13.35;;;231.30;2252.80;;;;;;5113295;28;19947;-77
2022/02/16 00:36:09;;;;;;;25.33;13.60;;;256.00;2252.80;;;;;;5114499;28;20039;-81
2022/02/16 00:38:35;;;;;;;27.48;14.43;;;256.00;2252.80;;;;;;5116071;28;20024;-81
2022/02/16 00:41:01;;;;;;;;;;;256.00;2252.80;;;;;;5117689;28;20068;-79
2022/02/16 00:43:28;;;;;;;23.23;13.57;;;256.10;2252.80;;;;;;5116488;28;20381;-81
2022/02/16 00:45:53;;;;;;;33.13;15.77;;;256.10;2252.80;;;;;;5116275;28;20020;-81
2022/02/16 00:48:19;;;;;;;28.17;13.23;;;256.10;2252.80;;;;;;5116323;28;20047;-81
2022/02/16 00:50:45;;;;;;;;;;;256.10;2252.80;;;;;;5116445;28;20020;-80
2022/02/16 00:53:11;;;;;;;26.50;13.65;;;256.10;2252.80;;;;;;5116244;28;20280;-82
2022/02/16 00:55:36;;;;;;;;;;;256.20;2252.80;;;;;;5116075;28;20035;-80
2022/02/16 00:58:05;;;;;;;25.98;12.82;;;256.30;2252.80;;;;;;5116089;28;19908;-81
2022/02/16 01:00:35;;;;;;;21.38;12.98;;;256.20;2252.80;;;;;;5115918;28;20034;-81
2022/02/16 01:03:01;;;;;;;23.85;12.70;;;256.20;2252.80;;;;;;5116066;28;20071;-81
2022/02/16 01:05:27;;;;;;;27.25;13.85;;;256.20;2252.80;;;;;;5116765;28;20035;-82
2022/02/16 01:07:53;;;;;;;21.73;12.63;;;256.10;2252.80;;;;;;5116211;27;20032;-82
2022/02/16 01:10:18;;;;;;;;;;;256.20;2252.80;;;;;;5116253;28;20536;-81
2022/02/16 01:12:44;;;;;;;24.20;13.65;;;256.20;2252.80;;;;;;5116140;27;19908;-81
2022/02/16 01:15:09;;;;;;;;;;;256.20;2252.80;;;;;;5116226;28;20035;-82
2022/02/16 01:17:35;;;;;;;23.70;14.18;;;256.30;2252.80;;;;;;5115626;28;19903;-81
2022/02/16 01:20:01;;;;;;;;;;;256.30;2252.80;;;;;;5116113;28;20039;-81
2022/02/16 01:22:27;;;;;;;23.67;13.00;;;256.20;2252.80;;;;;;5115352;28;19903;-81
2022/02/16 01:24:53;;;;;;;;;;;256.20;2252.80;;;;;;5115852;28;20152;-81
2022/02/16 01:27:19;;;;;;;24.05;13.93;;;256.00;2252.80;;;;;;5115378;28;19994;-81
2022/02/16 01:29:45;;;;;;;28.40;15.45;;;256.40;2252.80;;;;;;5116574;28;20102;-82
2022/02/16 01:32:11;;;;;;;26.38;14.35;;;256.60;2252.80;;;;;;5114993;28;20612;-82
2022/02/16 01:34:36;;;;;;;;;;;256.80;2252.80;;;;;;5115568;28;20059;-82
2022/02/16 01:37:02;;;;;;;31.50;13.98;;;256.60;2252.80;;;;;;5115402;28;19926;-83
2022/02/16 01:39:28;;;;;;;;;;;256.70;2252.80;;;;;;5115367;28;20023;-82
2022/02/16 01:41:55;;;;;;;25.65;13.45;;;256.80;2252.80;;;;;;5115395;28;19904;-82
2022/02/16 01:44:22;;;;;;;28.88;14.63;;;256.80;2252.80;;;;;;5115182;28;20106;-79
2022/02/16 01:46:49;;;;;;;26.27;13.55;;;256.80;2252.80;;;;;;5114587;28;20396;-82
2022/02/16 01:49:15;;;;;;;20.20;12.73;;;256.90;2252.80;;;;;;5115879;28;20055;-81
2022/02/16 01:51:41;;;;;;;23.88;13.93;;;281.60;2278.40;;;;;;5115041;27;20126;-79
2022/02/16 01:54:06;;;;;;;24.65;12.95;;;281.60;2278.40;;;;;;5114590;28;20464;-82
2022/02/16 01:56:33;;;;;;;22.33;12.85;;;281.60;2278.40;;;;;;5116108;28;20107;-81
2022/02/16 01:58:59;;;;;;;24.13;14.70;;;281.60;2278.40;;;;;;5114955;27;20062;-80
2022/02/16 02:01:25;;;;;;;23.88;13.73;;;281.60;2278.40;;;;;;5114695;28;20027;-82
2022/02/16 02:03:50;;;;;;;;;;;256.60;2252.80;;;;;;5115188;28;20023;-82
2022/02/16 02:06:16;;;;;;;24.75;12.90;;;256.90;2252.80;;;;;;5115627;28;20011;-82
2022/02/16 02:08:41;;;;;;;;;;;281.60;2278.40;;;;;;5115728;28;20523;-82
2022/02/16 02:11:07;;;;;;;26.48;13.95;;;256.80;2252.80;;;;;;5114823;28;19907;-83
2022/02/16 02:13:33;;;;;;;;;;;256.30;2252.80;;;;;;5115772;27;20484;-83
2022/02/16 02:15:58;;;;;;;27.02;14.48;;;231.30;2252.80;;;;;;5114840;28;19932;-82
2022/02/16 02:18:24;;;;;;;;;;;231.30;2252.80;;;;;;5116580;28;20027;-81
2022/02/16 02:20:50;;;;;;;25.83;13.57;;;231.20;2252.80;;;;;;5115515;28;19904;-81
2022/02/16 02:23:15;;;;;;;;;;;231.10;2252.80;;;;;;5115013;27;20139;-81
2022/02/16 02:25:52;;;;;;;23.15;13.60;;;231.10;2252.80;;;;;;5113825;28;19924;-81
2022/02/16 02:28:25;;;;;;;26.52;14.68;;;231.10;2252.80;;;;;;5114061;28;20024;-77
2022/02/16 02:30:51;;;;;;;24.23;13.73;;;231.10;2252.80;;;;;;5114603;28;20080;-82
2022/02/16 02:33:17;;;;;;;26.40;15.52;;;231.30;2252.80;;;;;;5115336;28;20062;-83
2022/02/16 02:35:44;;;;;;;25.95;14.48;;;256.10;2252.80;;;;;;5113804;28;20039;-79
2022/02/16 02:38:09;;;;;;;25.25;14.13;;;256.20;2252.80;;;;;;5113629;28;20477;-80
2022/02/16 02:40:35;;;;;;;24.45;14.10;;;256.40;2252.80;;;;;;5114220;28;20023;-82
2022/02/16 02:43:01;;;;;;;;;;;256.10;2252.80;;;;;;5114383;28;20444;-78
2022/02/16 02:45:27;;;;;;;27.80;14.18;;;256.10;2252.80;;;;;;5115133;28;19911;-81
2022/02/16 02:47:52;;;;;;;25.83;14.70;;;256.40;2252.80;;;;;;5115191;28;20024;-78
2022/02/16 02:50:18;;;;;;;;;;;256.60;2252.80;;;;;;5115224;28;20023;-82
2022/02/16 02:52:44;;;;;;;22.20;12.65;;;256.80;2252.80;;;;;;5114923;28;20356;-80
2022/02/16 02:55:10;;;;;;;;;;;256.80;2252.80;;;;;;5114883;28;20035;-76
2022/02/16 02:57:37;;;;;;;21.25;13.10;;;256.80;2252.80;;;;;;5113537;28;20289;-80
2022/02/16 03:00:05;;;;;;;26.33;13.45;;;256.90;2252.80;;;;;;5112917;28;20024;-83
2022/02/16 03:02:31;;;;;;;23.95;13.70;;;256.90;2252.80;;;;;;5114793;28;20026;-81
2022/02/16 03:04:57;;;;;;;24.17;13.07;;;256.90;2252.80;;;;;;5113552;28;20024;-81
2022/02/16 03:07:22;;;;;;;;;;;281.60;2278.40;;;;;;5114956;28;20027;-82
2022/02/16 03:09:48;;;;;;;23.83;13.07;;;281.60;2278.40;;;;;;5113202;28;19913;-81
2022/02/16 03:12:14;;;;;;;24.88;14.02;;;281.60;2278.40;;;;;;5113124;28;20045;-82
2022/02/16 03:14:39;;;;;;;22.23;14.20;;;281.60;2278.40;;;;;;5113608;28;20031;-82
2022/02/16 03:17:05;;;;;;;;;;;281.60;2278.40;;;;;;5113670;28;20027;-81
2022/02/16 03:19:31;;;;;;;26.92;13.93;;;281.70;2278.40;;;;;;5113526;28;19908;-82
2022/02/16 03:21:57;;;;;;;;;;;256.80;2252.80;;;;;;5113664;28;20024;-79
2022/02/16 03:24:22;;;;;;;24.00;13.40;;;256.80;2252.80;;;;;;5112814;28;19945;-79
2022/02/16 03:26:48;;;;;;;31.48;14.70;;;256.70;2252.80;;;;;;5113213;28;20031;-82
2022/02/16 03:29:14;;;;;;;;;;;256.70;2252.80;;;;;;5113761;28;20055;-82
2022/02/16 03:31:40;;;;;;;29.60;15.27;;;256.70;2252.80;;;;;;5112719;28;19904;-81
2022/02/16 03:34:06;;;;;;;30.35;15.75;;;256.60;2252.80;;;;;;5113179;28;20484;-82
2022/02/16 03:36:32;;;;;;;25.23;15.57;;;256.60;2252.80;;;;;;5114090;28;20510;-83
2022/02/16 03:38:58;;;;;;;25.15;16.25;;;256.70;2252.80;;;;;;5112877;28;20024;-78
2022/02/16 03:41:24;;;;;;;28.77;15.60;;;256.70;2252.80;;;;;;5112606;28;20054;-82
2022/02/16 03:43:49;;;;;;;;;;;256.80;2252.80;;;;;;5113076;28;20399;-81
2022/02/16 03:46:15;;;;;;;34.35;17.00;;;256.90;2252.80;;;;;;5112729;28;19989;-81
2022/02/16 03:48:41;;;;;;;;;;;256.90;2252.80;;;;;;5112946;28;20046;-81
2022/02/16 03:51:07;;;;;;;43.20;21.98;;;256.60;2252.80;;;;;;5113949;28;19904;-83
2022/02/16 03:53:32;;;;;;;47.92;25.23;;;256.30;2252.80;;;;;;5112114;28;20031;-80
2022/02/16 03:55:58;;;;;;;40.03;21.55;;;256.40;2252.80;;;;;;5112607;28;20028;-80
2022/02/16 03:58:24;;;;;;;;;;;256.50;2252.80;;;;;;5112985;28;20020;-81
2022/02/16 04:00:50;;;;;;;34.35;20.00;;;256.50;2252.80;;;;;;5112320;28;20372;-83
2022/02/16 04:03:15;;;;;;;;;;;256.40;2252.80;;;;;;5112780;28;20042;-83
2022/02/16 04:05:42;;;;;;;35.00;17.77;;;256.10;2252.80;;;;;;5112595;28;19945;-79
2022/02/16 04:08:09;;;;;;;30.55;18.52;;;231.30;2252.80;;;;;;5112342;28;20020;-81
2022/02/16 04:10:36;;;;;;;30.83;16.77;;;231.20;2252.80;;;;;;5113196;28;20069;-80
2022/02/16 04:13:01;;;;;;;27.70;18.55;;;231.10;2252.80;;;;;;5112803;28;20373;-77
2022/02/16 04:15:27;;;;;;;29.83;17.85;;;231.10;2252.80;;;;;;5112127;28;20057;-79
2022/02/16 04:17:53;;;;;;;34.17;19.58;;;231.10;2252.80;;;;;;5112336;28;20019;-80
2022/02/16 04:20:19;;;;;;;33.65;17.70;;;231.00;2252.80;;;;;;5112415;28;20031;-81
2022/02/16 04:22:46;;;;;;;;;;;231.20;2252.80;;;;;;5112892;28;20068;-79
2022/02/16 04:25:12;;;;;;;29.75;16.75;;;256.00;2252.80;;;;;;5113268;28;19931;-80
2022/02/16 04:27:38;;;;;;;29.33;17.15;;;231.30;2252.80;;;;;;5112047;28;20028;-80
2022/02/16 04:30:05;;;;;;;29.02;20.17;;;231.10;2252.80;;;;;;5112180;28;20117;-80
2022/02/16 04:32:31;;;;;;;34.60;19.27;;;231.00;2252.80;;;;;;5112489;28;20582;-77
2022/02/16 04:34:57;;;;;;;36.55;18.50;;;230.70;2252.80;;;;;;5112430;28;20138;-80
2022/02/16 04:37:22;;;;;;;;;;;230.70;2252.80;;;;;;5113392;28;20377;-81
2022/02/16 04:39:48;;;;;;;34.88;17.75;;;230.80;2252.80;;;;;;5112334;28;19904;-79
2022/02/16 04:42:14;;;;;;;28.23;18.25;;;230.60;2252.80;;;;;;5113060;28;20024;-80
2022/02/16 04:44:40;;;;;;;35.08;18.25;;;230.80;2252.80;;;;;;5113577;28;20545;-81
2022/02/16 04:47:06;;;;;;;;;;;230.90;2252.80;;;;;;5112936;28;20032;-81
2022/02/16 04:49:32;;;;;;;33.78;20.15;;;231.00;2252.80;;;;;;5112037;28;19910;-77
2022/02/16 04:51:57;;;;;;;38.05;19.73;;;231.00;2252.80;;;;;;5112316;28;20047;-81
2022/02/16 04:54:23;;;;;;;;;;;231.00;2252.80;;;;;;5113662;28;20429;-81
2022/02/16 04:56:49;;;;;;;38.00;20.77;;;231.30;2252.80;;;;;;5111500;28;19914;-80
2022/02/16 04:59:15;;;;;;;31.67;18.45;;;231.30;2252.80;;;;;;5112027;28;20020;-81
2022/02/16 05:01:42;;;;;;;33.15;18.88;;;231.20;2252.80;;;;;;5112924;28;20115;-81
2022/02/16 05:04:08;;;;;;;29.25;17.33;;;231.20;2252.80;;;;;;5111789;28;20385;-81
2022/02/16 05:06:37;;;;;;;27.00;15.60;;;231.30;2252.80;;;;;;5113047;28;20023;-79
2022/02/16 05:09:07;;;;;;;29.23;16.63;;;256.10;2252.80;;;;;;5112698;28;20016;-78
2022/02/16 05:11:33;;;;;;;24.67;16.45;;;256.20;2252.80;;;;;;5111701;28;20024;-78
2022/02/16 05:13:59;;;;;;;24.17;14.82;;;256.20;2252.80;;;;;;5111650;28;20031;-81
2022/02/16 05:16:25;;;;;;;;;;;256.40;2252.80;;;;;;5113485;28;20385;-79
2022/02/16 05:18:51;;;;;;;30.00;16.55;;;256.40;2252.80;;;;;;5111271;28;19903;-81
2022/02/16 05:21:17;;;;;;;30.52;16.88;;;256.40;2252.80;;;;;;5111809;28;20031;-80
2022/02/16 05:23:43;;;;;;;28.20;16.75;;;256.30;2252.80;;;;;;5115931;28;20443;-79
2022/02/16 05:26:09;;;;;;;30.10;16.85;;;256.30;2252.80;;;;;;5115101;28;20035;-80
2022/02/16 05:28:35;;;;;;;27.13;15.98;;;256.40;2252.80;;;;;;5116661;28;20063;-79
2022/02/16 05:31:01;;;;;;;31.55;17.70;;;256.40;2252.80;;;;;;5115139;28;20030;-79
2022/02/16 05:33:27;;;;;;;28.08;16.83;;;256.40;2252.80;;;;;;5116276;28;20103;-77
2022/02/16 05:35:53;;;;;;;31.25;17.25;;;256.40;2252.80;;;;;;5114710;28;20130;-79
2022/02/16 05:38:19;;;;;;;;;;;256.50;2252.80;;;;;;5115501;28;20023;-78
2022/02/16 05:40:45;;;;;;;34.80;18.05;;;256.50;2252.80;;;;;;5114960;28;19911;-80
2022/02/16 05:43:13;;;;;;;29.02;19.05;;;256.50;2252.80;;;;;;5115018;28;20032;-78
2022/02/16 05:45:42;;;;;;;30.67;18.80;;;256.50;2252.80;;;;;;5115772;28;20031;-81
2022/02/16 05:48:09;;;;;;;29.40;18.70;;;256.60;2252.80;;;;;;5115091;27;20031;-81
2022/02/16 05:50:35;;;;;;;28.85;19.85;;;256.60;2252.80;;;;;;5115811;27;20477;-80
2022/02/16 05:53:01;;;;;;;30.00;17.15;;;256.40;2252.80;;;;;;5115559;28;20027;-80
2022/02/16 05:55:27;;;;;;;26.52;16.17;;;256.20;2252.80;;;;;;5114695;28;20131;-82
2022/02/16 05:57:53;;;;;;;27.35;17.50;;;256.40;2252.80;;;;;;5115825;28;20575;-79
2022/02/16 06:00:18;;;;;;;;;;;256.40;2252.80;;;;;;5116311;28;20027;-79
2022/02/16 06:02:44;;;;;;;30.98;18.00;;;256.50;2252.80;;;;;;5114581;28;19915;-81
2022/02/16 06:05:10;;;;;;;35.42;21.55;;;256.50;2252.80;;;;;;5116026;28;20023;-80
2022/02/16 06:07:35;;;;;;;;;;;256.50;2252.80;;;;;;5115252;28;20097;-83
2022/02/16 06:10:01;;;;;;;36.80;21.70;;;256.40;2252.80;;;;;;5114731;28;19941;-80
2022/02/16 06:12:27;;;;;;;;;;;256.40;2252.80;;;;;;5115044;28;20020;-80
2022/02/16 06:14:53;;;;;;;35.22;20.67;;;256.40;2252.80;;;;;;5115575;28;20361;-80
2022/02/16 06:17:19;;;;;;;;;;;256.10;2252.80;;;;;;5115321;27;20034;-80
2022/02/16 06:19:44;;;;;;;35.65;18.85;;;256.30;2252.80;;;;;;5114644;28;19907;-82
2022/02/16 06:22:10;;;;;;;;;;;256.20;2252.80;;;;;;5115703;28;20020;-79
2022/02/16 06:24:36;;;;;;;30.88;17.85;;;256.10;2252.80;;;;;;5113925;28;19962;-80
2022/02/16 06:27:02;;;;;;;;;;;256.20;2252.80;;;;;;5114969;28;20077;-77
2022/02/16 06:29:28;;;;;;;30.35;18.23;;;256.40;2252.80;;;;;;5113963;28;19904;-82
2022/02/16 06:31:53;;;;;;;38.50;18.20;;;256.50;2252.80;;;;;;5114704;28;20119;-77
2022/02/16 06:34:19;;;;;;;;;;;256.60;2252.80;;;;;;5115384;28;20465;-77
2022/02/16 06:36:45;;;;;;;54.13;35.25;;;256.60;2252.80;;;;;;5113823;28;19914;-79
2022/02/16 06:39:10;;;;;;;;;;;256.80;2252.80;;;;;;5114289;28;20114;-80
2022/02/16 06:41:36;;;;;;;35.13;22.85;;;256.80;2252.80;;;;;;5114062;28;19983;-82
2022/02/16 06:44:02;;;;;;;;;;;256.80;2252.80;;;;;;5115038;28;20027;-80
2022/02/16 06:46:28;;;;;;;67.10;42.88;;;256.70;2252.80;;;;;;5113873;28;19961;-82
2022/02/16 06:48:53;;;;;;;53.25;32.17;;;256.70;2252.80;;;;;;5113890;27;20118;-78
2022/02/16 06:51:19;;;;;;;35.65;21.95;;;256.70;2252.80;;;;;;5112928;28;20502;-78
2022/02/16 06:53:45;;;;;;;;;;;256.80;2252.80;;;;;;5113137;28;20054;-78
2022/02/16 06:56:12;;;;;;;33.63;22.27;;;256.80;2252.80;;;;;;5112729;28;20003;-81
2022/02/16 06:58:38;;;;;;;36.20;21.50;;;256.90;2252.80;;;;;;5112980;28;20114;-82
2022/02/16 07:01:03;;;;;;;35.53;23.10;;;256.90;2252.80;;;;;;5113867;28;20496;-79
2022/02/16 07:03:30;;;;;;;;;;;256.80;2252.80;;;;;;5113568;28;20020;-79
2022/02/16 07:05:56;;;;;;;32.00;20.58;;;256.90;2252.80;;;;;;5112102;28;19912;-80
2022/02/16 07:08:22;;;;;;;35.20;20.05;;;256.90;2252.80;;;;;;5114311;28;20081;-78
2022/02/16 07:10:47;;;;;;;;;;;256.90;2252.80;;;;;;5113970;28;20496;-78
2022/02/16 07:13:13;;;;;;;37.97;17.95;;;256.80;2252.80;;;;;;5112498;28;19908;-80
2022/02/16 07:15:39;;;;;;;;;;;256.80;2252.80;;;;;;5113280;28;20545;-81
2022/02/16 07:18:05;;;;;;;29.73;16.88;;;256.90;2252.80;;;;;;5112659;28;19911;-78
2022/02/16 07:20:32;;;;;;;;;;;281.60;2278.40;;;;;;5113504;28;20557;-80
2022/02/16 07:22:58;;;;;;;28.30;16.77;;;256.90;2252.80;;;;;;5112580;28;20289;-79
2022/02/16 07:25:25;;;;;;;43.13;18.23;;;256.90;2252.80;;;;;;5112200;28;20065;-80
2022/02/16 07:27:51;;;;;;;30.00;19.45;;;256.80;2252.80;;;;;;5112777;28;20019;-81
2022/02/16 07:30:17;;;;;;;30.63;18.92;;;256.90;2252.80;;;;;;5112505;28;20015;-80
2022/02/16 07:32:43;;;;;;;36.17;19.67;;;256.90;2252.80;;;;;;5112392;28;20046;-81
2022/02/16 07:35:11;;;;;;;43.08;21.75;;;281.60;2278.40;;;;;;5112679;28;20045;-80
2022/02/16 07:37:37;;;;;;;43.00;23.77;;;281.70;2278.40;;;;;;5112947;28;20039;-79
2022/02/16 07:40:04;;;;;;;45.83;26.88;;;281.80;2278.40;;;;;;5112290;28;20028;-79
2022/02/16 07:42:31;;;;;;;42.80;25.13;;;281.70;2278.40;;;;;;5113931;28;20076;-82
2022/02/16 07:44:57;;;;;;;41.13;24.75;;;281.90;2278.40;;;;;;5113070;28;20029;-78
2022/02/16 07:47:23;;;;;;;35.55;21.10;;;281.80;2278.40;;;;;;5111687;28;20537;-79
2022/02/16 07:49:49;;;;;;;33.03;21.75;;;281.80;2278.40;;;;;;5112718;28;20031;-82
2022/02/16 07:52:15;;;;;;;35.75;20.88;;;282.00;2278.40;;;;;;5112026;28;20020;-79
2022/02/16 07:54:41;;;;;;;34.53;22.75;;;281.90;2278.40;;;;;;5111224;28;20038;-79
2022/02/16 07:57:07;;;;;;;36.58;21.05;;;282.00;2278.40;;;;;;5111714;28;20020;-77
2022/02/16 07:59:34;;;;;;;39.05;20.77;;;282.00;2278.40;;;;;;5112532;28;20544;-79
2022/02/16 08:01:59;;;;;;;41.75;24.30;;;282.10;2278.40;;;;;;5111027;28;20119;-79
2022/02/16 08:04:26;;;;;;;38.10;22.00;;;282.20;2278.40;;;;;;5112859;28;20051;-81
2022/02/16 08:06:53;;;;;;;33.55;21.90;;;282.30;2278.40;;;;;;5109964;28;20011;-80
2022/02/16 08:09:20;;;;;;;37.22;21.67;;;282.40;2278.40;;;;;;5111817;28;20043;-82
2022/02/16 08:11:47;;;;;;;32.67;20.92;;;282.40;2278.40;;;;;;5112183;28;20079;-81
2022/02/16 08:14:13;;;;;;;33.65;22.58;;;282.30;2278.40;;;;;;5111797;28;20080;-80
2022/02/16 08:16:40;;;;;;;34.08;21.38;;;282.30;2278.40;;;;;;5112867;28;20477;-83
2022/02/16 08:19:07;;;;;;;35.58;21.63;;;282.30;2278.40;;;;;;5112379;28;20545;-84
2022/02/16 08:21:34;;;;;;;39.60;22.75;;;282.20;2278.40;;;;;;5111948;28;20485;-82
2022/02/16 08:24:01;;;;;;;50.55;28.52;;;282.20;2278.40;;;;;;5113246;28;20115;-83
2022/02/16 08:26:26;;;;;;;35.90;22.33;;;282.20;2278.40;;;;;;5111782;28;20051;-83
2022/02/16 08:28:52;;;;;;;33.10;20.15;;;282.20;2278.40;;;;;;5111824;28;20085;-78
2022/02/16 08:31:18;;;;;;;;;;;282.30;2278.40;;;;;;5112115;28;20015;-83
2022/02/16 08:33:44;;;;;;;29.38;18.27;;;282.40;2278.40;;;;;;5113179;28;19986;-82
2022/02/16 08:36:11;;;;;;;;;;;282.30;2278.40;;;;;;5113358;28;20546;-79
2022/02/16 08:38:38;;;;;;;25.23;14.25;;;282.40;2278.40;;;;;;5111900;28;19904;-81
2022/02/16 08:41:05;;;;;;;27.08;17.90;;;282.50;2278.40;;;;;;5113108;28;20032;-81
2022/02/16 08:43:30;;;;;;;32.40;19.83;;;282.40;2278.40;;;;;;5112827;28;20016;-81
2022/02/16 08:45:58;;;;;;;25.38;17.98;;;282.30;2278.40;;;;;;5111734;28;20366;-79
2022/02/16 08:48:24;;;;;;;28.77;17.80;;;282.30;2278.40;;;;;;5111552;28;20023;-78
2022/02/16 08:50:54;;;;;;;29.35;17.77;;;282.30;2278.40;;;;;;5111508;28;20073;-78
2022/02/16 08:53:22;;;;;;;26.10;16.08;;;282.30;2278.40;;;;;;5111790;28;20031;-82
2022/02/16 08:55:49;;;;;;;25.70;15.88;;;282.40;2278.40;;;;;;5111368;28;20035;-89
2022/02/16 08:58:15;;;;;;;35.25;19.45;;;282.40;2278.40;;;;;;5114626;28;20177;-84
2022/02/16 09:00:42;;;;;;;29.90;17.33;;;282.40;2278.40;;;;;;5115637;28;20078;-87
2022/02/16 09:03:08;;;;;;;30.45;18.13;;;282.20;2278.40;;;;;;5115981;28;20024;-84
2022/02/16 09:05:33;;;;;;;30.45;17.35;;;282.30;2278.40;;;;;;5115029;28;20140;-77
2022/02/16 09:07:59;;;;;;;;;;;282.30;2278.40;;;;;;5115859;28;20039;-84
2022/02/16 09:10:25;;;;;;;21.92;15.13;;;282.30;2278.40;;;;;;5115389;28;19904;-80
2022/02/16 09:12:51;;;;;;;25.42;17.83;;;282.30;2278.40;;;;;;5116457;28;20026;-85
2022/02/16 09:15:18;;;;;;;25.92;16.58;;;282.40;2278.40;;;;;;5115351;28;20035;-85
2022/02/16 09:17:44;;;;;;;22.35;15.10;;;282.50;2278.40;;;;;;5115259;28;20034;-82
2022/02/16 09:20:10;;;;;;;27.38;17.15;;;282.40;2278.40;;;;;;5115733;28;20035;-80
2022/02/16 09:22:37;;;;;;;28.85;17.58;;;282.30;2278.40;;;;;;5115946;27;20059;-87
2022/02/16 09:25:04;;;;;;;31.35;19.65;;;282.10;2278.40;;;;;;5115110;28;20047;-83
2022/02/16 09:27:30;;;;;;;29.98;18.77;;;282.20;2278.40;;;;;;5115416;28;20476;-83
2022/02/16 09:29:56;;;;;;;27.25;16.85;;;282.30;2278.40;;;;;;5115691;27;20036;-82
2022/02/16 09:32:22;;;;;;;;;;;282.40;2278.40;;;;;;5115689;28;20023;-79
2022/02/16 09:34:50;;;;;;;26.47;15.87;;;282.50;2278.40;;;;;;5115090;28;19960;-82
2022/02/16 09:37:15;;;;;;;22.23;16.17;;;282.50;2278.40;;;;;;5115345;27;20473;-89
2022/02/16 09:39:41;;;;;;;27.88;16.58;;;307.20;2304.00;;;;;;5114895;28;20032;-82
2022/02/16 09:42:08;;;;;;;30.05;18.00;;;282.50;2278.40;;;;;;5115113;28;20023;-83
2022/02/16 09:44:43;;;;;;;31.65;18.20;;;307.30;2304.00;;;;;;5114786;28;20098;-86
2022/02/16 09:47:09;;;;;;;27.90;17.65;;;307.20;2304.00;;;;;;5115402;28;20119;-86
2022/02/16 09:49:36;;;;;;;;;;;307.30;2304.00;;;;;;5115404;28;20051;-87
2022/02/16 09:52:04;;;;;;;23.77;14.90;;;282.50;2278.40;;;;;;5115574;28;19914;-89
2022/02/16 09:54:30;;;;;;;19.83;14.85;;;282.40;2278.40;;;;;;5114581;28;20036;-83
2022/02/16 09:56:55;;;;;;;22.08;13.95;;;282.50;2278.40;;;;;;5114241;28;20028;-84
2022/02/16 09:59:21;;;;;;;;;;;307.40;2304.00;;;;;;5112236;28;20110;-80
2022/02/16 10:01:58;;;;;;;23.20;14.25;;;307.20;2304.00;;;;;;5114066;28;19903;-85
2022/02/16 10:04:27;;;;;;;;;;;307.50;2304.00;;;;;;5114493;28;20500;-87
2022/02/16 10:06:53;;;;;;;24.83;14.50;;;307.60;2304.00;;;;;;5114449;28;19911;-85
2022/02/16 10:09:29;;;;;;;27.80;17.30;;;307.80;2304.00;;;;;;5115113;28;20016;-86
2022/02/16 10:11:58;;;;;;;27.97;18.77;;;307.70;2304.00;;;;;;5113982;28;20076;-83
2022/02/16 10:14:27;;;;;;;24.70;17.05;;;307.60;2304.00;;;;;;5115272;28;20064;-84
2022/02/16 10:16:53;;;;;;;35.55;19.27;;;307.60;2304.00;;;;;;5114529;28;20080;-83
2022/02/16 10:19:20;;;;;;;31.60;20.55;;;307.60;2304.00;;;;;;5115361;28;20024;-88
2022/02/16 10:21:58;;;;;;;36.38;20.33;;;307.60;2304.00;;;;;;5114473;28;20433;-81
2022/02/16 10:24:24;;;;;;;32.15;18.88;;;307.70;2304.00;;;;;;5114822;28;20059;-81
2022/02/16 10:26:52;;;;;;;34.20;21.80;;;307.90;2304.00;;;;;;5113915;27;20028;-80
2022/02/16 10:29:22;;;;;;;28.45;18.17;;;308.10;2304.00;;;;;;5114288;28;20035;-86
2022/02/16 10:31:48;;;;;;;34.33;19.27;;;332.80;2329.60;;;;;;5114169;28;20105;-86
2022/02/16 10:34:14;;;;;;;26.50;16.83;;;332.80;2329.60;;;;;;5114245;28;20028;-79
2022/02/16 10:36:40;;;;;;;29.00;18.10;;;332.90;2329.60;;;;;;5115440;28;20034;-89
2022/02/16 10:39:12;;;;;;;26.85;18.27;;;333.00;2329.60;;;;;;5114401;28;20485;-88
2022/02/16 10:41:52;;;;;;;24.55;17.63;;;333.00;2329.60;;;;;;5114012;28;20031;-84
2022/02/16 10:44:18;;;;;;;27.60;18.65;;;333.00;2329.60;;;;;;5114088;28;20126;-88
2022/02/16 10:46:44;;;;;;;33.58;19.02;;;333.20;2329.60;;;;;;5114328;28;20051;-88
2022/02/16 10:49:16;;;;;;;29.42;18.95;;;333.20;2329.60;;;;;;5114065;28;20024;-85
2022/02/16 10:51:45;;;;;;;21.35;14.95;;;333.30;2329.60;;;;;;5114150;28;20081;-81
2022/02/16 10:54:19;;;;;;;24.73;15.73;;;333.30;2329.60;;;;;;5112797;28;20393;-82
2022/02/16 10:56:48;;;;;;;25.08;16.88;;;333.30;2329.60;;;;;;5111516;28;20442;-84
2022/02/16 10:59:14;;;;;;;23.52;14.82;;;333.30;2329.60;;;;;;5113631;27;20078;-87
2022/02/16 11:01:41;;;;;;;21.17;13.20;;;333.40;2329.60;;;;;;5113517;28;20341;-86
2022/02/16 11:04:09;;;;;;;22.58;13.13;;;333.40;2329.60;;;;;;5113231;28;20020;-85
2022/02/16 11:06:38;;;;;;;20.73;13.02;;;333.50;2329.60;;;;;;5113541;28;20444;-83
2022/02/16 11:09:07;;;;;;;20.88;13.98;;;333.50;2329.60;;;;;;5113088;28;20028;-84
2022/02/16 11:11:33;;;;;;;18.83;12.23;;;333.50;2329.60;;;;;;5112775;28;20031;-79
2022/02/16 11:14:03;;;;;;;13.43;9.65;;;333.70;2329.60;;;;;;5112660;28;20508;-79
2022/02/16 11:16:29;;;;;;;17.70;13.00;;;358.40;2329.60;;;;;;5112492;27;20512;-80
2022/02/16 11:18:59;;;;;;;18.45;10.93;;;358.60;2329.60;;;;;;5112423;28;20411;-82
2022/02/16 11:21:28;;;;;;;14.10;10.45;;;358.70;2329.60;;;;;;5112975;28;20012;-79
2022/02/16 11:23:56;;;;;;;23.73;14.52;;;358.60;2329.60;;;;;;5111974;28;20362;-78
2022/02/16 11:26:35;;;;;;;19.52;13.57;;;358.70;2329.60;;;;;;5111648;28;20035;-79
2022/02/16 11:29:08;;;;;;;18.95;12.95;;;358.80;2329.60;;;;;;5110066;28;20031;-80
2022/02/16 11:31:37;;;;;;;17.80;10.93;;;358.70;2329.60;;;;;;5112907;28;20385;-78
2022/02/16 11:34:12;;;;;;;19.23;12.00;;;358.60;2329.60;;;;;;5111561;28;20073;-78
2022/02/16 11:36:57;;;;;;;18.55;12.75;;;358.60;2329.60;;;;;;5112376;27;20031;-80
2022/02/16 11:39:57;;;;;;;30.52;16.48;;;358.50;2329.60;;;;;;5110754;28;20381;-80
2022/02/16 11:42:47;;;;;;;19.92;11.50;;;333.70;2329.60;;;;;;5110656;28;20022;-80
2022/02/16 11:45:14;;;;;;;17.27;12.13;;;333.70;2329.60;;;;;;5112547;28;20441;-79
2022/02/16 11:47:40;;;;;;;17.27;11.38;;;333.60;2329.60;;;;;;5092869;28;20048;-78
2022/02/16 11:50:15;;;;;;;17.92;12.73;;;333.70;2329.60;;;;;;5092044;28;20082;-81
2022/02/16 11:52:49;;;;;;;15.10;9.75;;;333.70;2329.60;;;;;;5092206;28;20124;-79
2022/02/16 11:55:26;;;;;;;14.82;10.15;;;333.70;2329.60;;;;;;5108261;28;20043;-80
2022/02/16 11:58:19;;;;;;;15.93;10.55;;;358.40;2329.60;;;;;;5112482;28;20024;-82
2022/02/16 12:00:58;;;;;;;15.85;11.15;;;358.50;2329.60;;;;;;5054618;28;20044;-83
2022/02/16 12:03:33;;;;;;;18.08;11.75;;;358.80;2329.60;;;;;;5054321;28;20059;-82
2022/02/16 12:06:10;;;;;;;18.08;11.52;;;358.70;2329.60;;;;;;5053719;28;20032;-84
2022/02/16 12:08:44;;;;;;;21.42;10.85;;;358.70;2329.60;;;;;;5071408;28;20028;-82
2022/02/16 12:11:23;;;;;;;16.13;11.80;;;358.60;2329.60;;;;;;5053734;28;20036;-81
2022/02/16 12:14:23;;;;;;;17.73;11.52;;;358.60;2329.60;;;;;;5054221;28;20024;-82
2022/02/16 12:16:52;;;;;;;16.77;11.02;;;358.60;2329.60;;;;;;5011422;28;20132;-79